首页
METAR-TAF:

METAR-TAF

机场 :

赤塔機場

赤塔, 俄罗斯

纬度: 52-05N, 经度: 113-29E, 海拔: 685米

当前天气观测

该预报发布于17分钟前的08:30 UTC
风速19节,风向西转西北,有时为29节阵风
温度 1°C
湿度 25%
气压 1017 hPa
能见度10公里或以上
散云层高于4000英尺, 积雨云.

METAR: UIAA 230830Z 30010G15MPS 9999 SCT040CB 01/M17 Q1017 R29/CLRD70 NOSIG RMK QFE704/0939

时间: 17:47 (08:47 UTC)

预报

该预报发布于47分钟前的08:00 UTC
预报有效从23日的 09点(UTC)到 24日的 09点(UTC)
风速12节,风向西转西北,有时为25节阵风
能见度10公里或以上
散云层高于3000英尺, 积雨云.
短暂存在
从 23日的 09点(UTC)到 23日的 12点(UTC)
风速25节,风向西转西北,有时为39节阵风

TAF: UIAA 230800Z 2309/2409 29006G13MPS 9999 SCT030CB TEMPO 2309/2312 30013G20MPS

超过4000个机场的气象观测和天气预报(METAR&TAF报告)。

可查询的气象台以黄色和红色小点在地图上表示。

将鼠标移到小点上方,可查看气象台名称。

然后点击查看天气观测和预报。

如需切换地图:点击带黑十字的绿色按钮放大地图;点击带横线的绿色按钮缩小地图;或者点击绿色箭头查看邻近地区的地图。


METAR-TAF: